Time,TemperatureF,DewpointF,PressureIn,WindDirection,WindDirectionDegrees,WindSpeedMPH,WindSpeedGustMPH,Humidity,HourlyPrecipIn,Conditions,Clouds,dailyrainin,SolarRadiationWatts/m^2,SoftwareType,DateUTC
2013-11-21 00:23:00,30.0,19.0,-100.00,East,85,4.0,6.0,62,0.00,,,0.00,1.000000,,2013-11-21 05:23:00,
2013-11-21 00:33:00,30.0,19.0,-100.00,East,85,4.0,6.0,62,0.00,,,0.00,1.000000,,2013-11-21 05:33:00,
2013-11-21 00:43:00,30.0,19.0,-100.00,East,85,4.0,6.0,62,0.00,,,0.00,1.000000,,2013-11-21 05:43:00,
2013-11-21 00:52:00,30.0,19.0,-100.00,East,85,4.0,6.0,62,0.00,,,0.00,1.000000,,2013-11-21 05:52:00,
2013-11-21 01:22:00,32.0,14.0,-100.00,NE,47,3.0,11.0,46,0.00,,,0.00,1.000000,,2013-11-21 06:22:00,
2013-11-21 01:33:00,32.0,14.0,-100.00,NE,47,3.0,11.0,46,0.00,,,0.00,1.000000,,2013-11-21 06:33:00,
2013-11-21 01:43:00,32.0,14.0,-100.00,NE,47,3.0,11.0,46,0.00,,,0.00,1.000000,,2013-11-21 06:43:00,
2013-11-21 01:52:00,32.0,14.0,-100.00,NE,47,3.0,11.0,46,0.00,,,0.00,1.000000,,2013-11-21 06:52:00,
2013-11-21 02:22:00,29.0,14.0,-100.00,SSE,156,2.0,7.0,52,0.00,,,0.00,1.000000,,2013-11-21 07:22:00,
2013-11-21 02:33:00,29.0,14.0,-100.00,SSE,156,2.0,7.0,52,0.00,,,0.00,1.000000,,2013-11-21 07:33:00,
2013-11-21 02:42:00,29.0,14.0,-100.00,SSE,156,2.0,7.0,52,0.00,,,0.00,1.000000,,2013-11-21 07:42:00,
2013-11-21 02:52:00,29.0,14.0,-100.00,SSE,156,2.0,7.0,52,0.00,,,0.00,1.000000,,2013-11-21 07:52:00,
2013-11-21 03:22:00,28.0,17.0,-100.00,ENE,77,3.0,5.0,64,0.00,,,0.00,1.000000,,2013-11-21 08:22:00,
2013-11-21 03:32:00,28.0,17.0,-100.00,ENE,77,3.0,5.0,64,0.00,,,0.00,1.000000,,2013-11-21 08:32:00,
2013-11-21 03:42:00,28.0,17.0,-100.00,ENE,77,3.0,5.0,64,0.00,,,0.00,1.000000,,2013-11-21 08:42:00,
2013-11-21 03:52:00,28.0,17.0,-100.00,ENE,77,3.0,5.0,64,0.00,,,0.00,1.000000,,2013-11-21 08:52:00,
2013-11-21 04:22:00,25.0,18.0,-100.00,NW,313,1.0,4.0,74,0.00,,,0.00,1.000000,,2013-11-21 09:22:00,
2013-11-21 04:33:00,25.0,18.0,-100.00,NW,313,1.0,4.0,74,0.00,,,0.00,1.000000,,2013-11-21 09:33:00,
2013-11-21 04:43:00,25.0,18.0,-100.00,NW,313,1.0,4.0,74,0.00,,,0.00,1.000000,,2013-11-21 09:43:00,
2013-11-21 04:53:00,25.0,18.0,-100.00,NW,313,1.0,4.0,74,0.00,,,0.00,1.000000,,2013-11-21 09:53:00,
2013-11-21 05:23:00,26.0,19.0,-100.00,East,84,2.0,5.0,75,0.00,,,0.00,1.000000,,2013-11-21 10:23:00,
2013-11-21 05:33:00,26.0,19.0,-100.00,East,84,2.0,5.0,75,0.00,,,0.00,1.000000,,2013-11-21 10:33:00,
2013-11-21 05:42:00,26.0,19.0,-100.00,East,84,2.0,5.0,75,0.00,,,0.00,1.000000,,2013-11-21 10:42:00,
2013-11-21 05:53:00,26.0,19.0,-100.00,East,84,2.0,5.0,75,0.00,,,0.00,1.000000,,2013-11-21 10:53:00,
2013-11-21 06:22:00,28.0,19.0,-100.00,East,91,4.0,7.0,68,0.00,,,0.00,1.000000,,2013-11-21 11:22:00,
2013-11-21 06:33:00,28.0,19.0,-100.00,East,91,4.0,7.0,68,0.00,,,0.00,1.000000,,2013-11-21 11:33:00,
2013-11-21 06:43:00,28.0,19.0,-100.00,East,91,4.0,7.0,68,0.00,,,0.00,1.000000,,2013-11-21 11:43:00,
2013-11-21 06:52:00,28.0,19.0,-100.00,East,91,4.0,7.0,68,0.00,,,0.00,1.000000,,2013-11-21 11:52:00,
2013-11-21 07:22:00,28.0,21.0,-100.00,ENE,60,5.0,7.0,76,0.00,,,0.00,1.000000,,2013-11-21 12:22:00,
2013-11-21 07:32:00,28.0,21.0,-100.00,ENE,60,5.0,7.0,76,0.00,,,0.00,1.000000,,2013-11-21 12:32:00,
2013-11-21 07:42:00,28.0,21.0,-100.00,ENE,60,5.0,7.0,76,0.00,,,0.00,1.000000,,2013-11-21 12:42:00,
2013-11-21 07:52:00,28.0,21.0,-100.00,ENE,60,5.0,7.0,76,0.00,,,0.00,1.000000,,2013-11-21 12:52:00,
2013-11-21 08:22:00,28.0,22.0,-100.00,WSW,241,1.0,8.0,77,0.00,,,0.00,23.000000,,2013-11-21 13:22:00,
2013-11-21 08:32:00,28.0,22.0,-100.00,WSW,241,1.0,8.0,77,0.00,,,0.00,23.000000,,2013-11-21 13:32:00,
2013-11-21 08:42:00,28.0,22.0,-100.00,WSW,241,1.0,8.0,77,0.00,,,0.00,23.000000,,2013-11-21 13:42:00,
2013-11-21 08:52:00,28.0,22.0,-100.00,WSW,241,1.0,8.0,77,0.00,,,0.00,23.000000,,2013-11-21 13:52:00,
2013-11-21 09:22:00,32.0,25.0,-100.00,North,349,1.0,4.0,76,0.00,,,0.00,74.000000,,2013-11-21 14:22:00,
2013-11-21 09:32:00,32.0,25.0,-100.00,North,349,1.0,4.0,76,0.00,,,0.00,74.000000,,2013-11-21 14:32:00,
2013-11-21 09:42:00,32.0,25.0,-100.00,North,349,1.0,4.0,76,0.00,,,0.00,74.000000,,2013-11-21 14:42:00,
2013-11-21 09:52:00,32.0,25.0,-100.00,North,349,1.0,4.0,76,0.00,,,0.00,74.000000,,2013-11-21 14:52:00,
2013-11-21 10:22:00,37.0,27.0,-100.00,ENE,65,4.0,8.0,68,0.00,,,0.00,127.000000,,2013-11-21 15:22:00,
2013-11-21 10:34:00,37.0,27.0,-100.00,ENE,65,4.0,8.0,68,0.00,,,0.00,127.000000,,2013-11-21 15:34:00,
2013-11-21 10:43:00,37.0,27.0,-100.00,ENE,65,4.0,8.0,68,0.00,,,0.00,127.000000,,2013-11-21 15:43:00,
2013-11-21 10:53:00,37.0,27.0,-100.00,ENE,65,4.0,8.0,68,0.00,,,0.00,127.000000,,2013-11-21 15:53:00,
2013-11-21 11:24:00,41.0,31.0,-100.00,ESE,107,6.0,12.0,66,0.00,,,0.00,290.000000,,2013-11-21 16:24:00,
2013-11-21 11:33:00,41.0,31.0,-100.00,ESE,107,6.0,12.0,66,0.00,,,0.00,290.000000,,2013-11-21 16:33:00,
2013-11-21 11:42:00,41.0,31.0,-100.00,ESE,107,6.0,12.0,66,0.00,,,0.00,290.000000,,2013-11-21 16:42:00,
2013-11-21 11:53:00,41.0,31.0,-100.00,ESE,107,6.0,12.0,66,0.00,,,0.00,290.000000,,2013-11-21 16:53:00,
2013-11-21 12:22:00,42.0,34.0,-100.00,SE,140,4.0,13.0,72,0.00,,,0.00,148.000000,,2013-11-21 17:22:00,
2013-11-21 12:33:00,42.0,34.0,-100.00,SE,140,4.0,13.0,72,0.00,,,0.00,148.000000,,2013-11-21 17:33:00,
2013-11-21 12:42:00,42.0,34.0,-100.00,SE,140,4.0,13.0,72,0.00,,,0.00,148.000000,,2013-11-21 17:42:00,
2013-11-21 12:52:00,42.0,34.0,-100.00,SE,140,4.0,13.0,72,0.00,,,0.00,148.000000,,2013-11-21 17:52:00,
2013-11-21 13:22:00,42.0,34.0,-100.00,SE,141,5.0,13.0,73,0.00,,,0.00,168.000000,,2013-11-21 18:22:00,
2013-11-21 13:32:00,42.0,34.0,-100.00,SE,141,5.0,13.0,73,0.00,,,0.00,168.000000,,2013-11-21 18:32:00,
2013-11-21 13:42:00,42.0,34.0,-100.00,SE,141,5.0,13.0,73,0.00,,,0.00,168.000000,,2013-11-21 18:42:00,
2013-11-21 13:52:00,42.0,34.0,-100.00,SE,141,5.0,13.0,73,0.00,,,0.00,168.000000,,2013-11-21 18:52:00,
2013-11-21 14:22:00,43.0,35.0,-100.00,ESE,102,4.0,12.0,73,0.00,,,0.00,166.000000,,2013-11-21 19:22:00,
2013-11-21 14:33:00,43.0,35.0,-100.00,ESE,102,4.0,12.0,73,0.00,,,0.00,166.000000,,2013-11-21 19:33:00,
2013-11-21 14:42:00,43.0,35.0,-100.00,ESE,102,4.0,12.0,73,0.00,,,0.00,166.000000,,2013-11-21 19:42:00,
2013-11-21 14:52:00,43.0,35.0,-100.00,ESE,102,4.0,12.0,73,0.00,,,0.00,166.000000,,2013-11-21 19:52:00,
2013-11-21 15:22:00,43.0,35.0,-100.00,East,95,3.0,9.0,74,0.00,,,0.00,85.000000,,2013-11-21 20:22:00,
2013-11-21 15:32:00,43.0,35.0,-100.00,East,95,3.0,9.0,74,0.00,,,0.00,85.000000,,2013-11-21 20:32:00,
2013-11-21 15:42:00,43.0,35.0,-100.00,East,95,3.0,9.0,74,0.00,,,0.00,85.000000,,2013-11-21 20:42:00,
2013-11-21 15:52:00,43.0,35.0,-100.00,East,95,3.0,9.0,74,0.00,,,0.00,85.000000,,2013-11-21 20:52:00,
2013-11-21 16:22:00,42.0,35.0,-100.00,ENE,75,3.0,10.0,76,0.00,,,0.00,40.000000,,2013-11-21 21:22:00,
2013-11-21 16:34:00,42.0,35.0,-100.00,ENE,75,3.0,10.0,76,0.00,,,0.00,40.000000,,2013-11-21 21:34:00,
2013-11-21 16:43:00,42.0,35.0,-100.00,ENE,75,3.0,10.0,76,0.00,,,0.00,40.000000,,2013-11-21 21:43:00,
2013-11-21 16:54:00,42.0,35.0,-100.00,ENE,75,3.0,10.0,76,0.00,,,0.00,40.000000,,2013-11-21 21:54:00,
2013-11-21 17:23:00,42.0,34.0,-100.00,NE,39,2.0,8.0,74,0.00,,,0.00,6.000000,,2013-11-21 22:23:00,
2013-11-21 17:33:00,42.0,34.0,-100.00,NE,39,2.0,8.0,74,0.00,,,0.00,6.000000,,2013-11-21 22:33:00,
2013-11-21 17:43:00,42.0,34.0,-100.00,NE,39,2.0,8.0,74,0.00,,,0.00,6.000000,,2013-11-21 22:43:00,
2013-11-21 17:53:00,42.0,34.0,-100.00,NE,39,2.0,8.0,74,0.00,,,0.00,6.000000,,2013-11-21 22:53:00,
2013-11-21 18:22:00,42.0,35.0,-100.00,NE,51,3.0,6.0,76,0.00,,,0.00,1.000000,,2013-11-21 23:22:00,
2013-11-21 18:33:00,42.0,35.0,-100.00,NE,51,3.0,6.0,76,0.00,,,0.00,1.000000,,2013-11-21 23:33:00,
2013-11-21 18:42:00,42.0,35.0,-100.00,NE,51,3.0,6.0,76,0.00,,,0.00,1.000000,,2013-11-21 23:42:00,
2013-11-21 18:53:00,42.0,35.0,-100.00,NE,51,3.0,6.0,76,0.00,,,0.00,1.000000,,2013-11-21 23:53:00,
2013-11-21 19:22:00,42.0,36.0,-100.00,NE,56,3.0,7.0,78,0.00,,,0.00,1.000000,,2013-11-22 00:22:00,
2013-11-21 19:32:00,42.0,36.0,-100.00,NE,56,3.0,7.0,78,0.00,,,0.00,1.000000,,2013-11-22 00:32:00,
2013-11-21 19:42:00,42.0,36.0,-100.00,NE,56,3.0,7.0,78,0.00,,,0.00,1.000000,,2013-11-22 00:42:00,
2013-11-21 19:52:00,42.0,36.0,-100.00,NE,56,3.0,7.0,78,0.00,,,0.00,1.000000,,2013-11-22 00:52:00,
2013-11-21 20:22:00,43.0,37.0,-100.00,East,91,4.0,8.0,78,0.00,,,0.00,1.000000,,2013-11-22 01:22:00,
2013-11-21 20:32:00,43.0,37.0,-100.00,East,91,4.0,8.0,78,0.00,,,0.00,1.000000,,2013-11-22 01:32:00,
2013-11-21 20:42:00,43.0,37.0,-100.00,East,91,4.0,8.0,78,0.00,,,0.00,1.000000,,2013-11-22 01:42:00,
2013-11-21 20:52:00,43.0,37.0,-100.00,East,91,4.0,8.0,78,0.00,,,0.00,1.000000,,2013-11-22 01:52:00,
2013-11-21 21:22:00,44.0,37.0,-100.00,NE,38,2.0,6.0,77,0.00,,,0.00,1.000000,,2013-11-22 02:22:00,
2013-11-21 21:32:00,44.0,37.0,-100.00,NE,38,2.0,6.0,77,0.00,,,0.00,1.000000,,2013-11-22 02:32:00,
2013-11-21 21:42:00,44.0,37.0,-100.00,NE,38,2.0,6.0,77,0.00,,,0.00,1.000000,,2013-11-22 02:42:00,
2013-11-21 21:53:00,44.0,37.0,-100.00,NE,38,2.0,6.0,77,0.00,,,0.00,1.000000,,2013-11-22 02:53:00,
2013-11-21 22:22:00,44.0,37.0,-100.00,NNE,17,3.0,11.0,77,0.00,,,0.00,1.000000,,2013-11-22 03:22:00,
2013-11-21 22:33:00,44.0,37.0,-100.00,NNE,17,3.0,11.0,77,0.00,,,0.00,1.000000,,2013-11-22 03:33:00,
2013-11-21 22:43:00,44.0,37.0,-100.00,NNE,17,3.0,11.0,77,0.00,,,0.00,1.000000,,2013-11-22 03:43:00,
2013-11-21 22:54:00,44.0,37.0,-100.00,NNE,17,3.0,11.0,77,0.00,,,0.00,1.000000,,2013-11-22 03:54:00,
2013-11-21 23:23:00,43.0,38.0,-100.00,North,9,2.0,5.0,84,0.00,,,0.00,1.000000,,2013-11-22 04:23:00,
2013-11-21 23:33:00,43.0,38.0,-100.00,North,9,2.0,5.0,84,0.00,,,0.00,1.000000,,2013-11-22 04:33:00,
2013-11-21 23:43:00,43.0,38.0,-100.00,North,9,2.0,5.0,84,0.00,,,0.00,1.000000,,2013-11-22 04:43:00,
2013-11-21 23:53:00,43.0,38.0,-100.00,North,9,2.0,5.0,84,0.00,,,0.00,1.000000,,2013-11-22 04:53:00,